Time;durP1;ratioP1;P1;durP2;ratioP2;P2;SDS_P1;SDS_P2;PMS_P1;PMS_P2;Temp;Humidity;BMP_temperature;BMP_pressure;BME280_temperature;BME280_humidity;BME280_pressure;Samples;Min_cycle;Max_cycle;Signal;HPM_P1;HPM_P2
2022/06/01 00:01:13;;;;;;;7.13;6.18;;;11.00;86.60;;;;;;5054428;28;20025;-44
2022/06/01 00:03:40;;;;;;;8.13;5.80;;;11.10;86.60;;;;;;5047494;28;20088;-44
2022/06/01 00:06:07;;;;;;;5.40;4.80;;;11.00;86.60;;;;;;5041212;28;20039;-46
2022/06/01 00:08:35;;;;;;;6.28;4.90;;;11.00;86.50;;;;;;5037072;28;20033;-44
2022/06/01 00:11:01;;;;;;;6.07;5.47;;;11.00;86.70;;;;;;5033968;28;20129;-45
2022/06/01 00:13:28;;;;;;;5.63;5.07;;;11.10;86.60;;;;;;5052218;28;20086;-44
2022/06/01 00:15:54;;;;;;;6.32;5.50;;;11.10;86.60;;;;;;5049831;28;20029;-44
2022/06/01 00:18:20;;;;;;;8.15;6.80;;;11.10;86.50;;;;;;5031200;28;20052;-43
2022/06/01 00:20:46;;;;;;;5.95;5.22;;;11.10;86.60;;;;;;5030736;28;20437;-43
2022/06/01 00:23:12;;;;;;;6.85;6.07;;;11.10;86.70;;;;;;5031199;28;20033;-43
2022/06/01 00:25:37;;;;;;;8.40;6.90;;;11.10;86.60;;;;;;5030523;28;20111;-45
2022/06/01 00:28:03;;;;;;;7.35;6.53;;;11.20;86.50;;;;;;5032121;28;20037;-45
2022/06/01 00:30:29;;;;;;;6.38;5.75;;;11.20;86.70;;;;;;5051784;28;20124;-44
2022/06/01 00:32:55;;;;;;;8.60;7.15;;;11.20;86.70;;;;;;5050812;28;20029;-45
2022/06/01 00:35:23;;;;;;;7.22;6.10;;;11.20;86.70;;;;;;5035825;28;20026;-44
2022/06/01 00:37:49;;;;;;;7.70;6.90;;;11.20;86.80;;;;;;5031996;28;20045;-46
2022/06/01 00:40:18;;;;;;;9.57;7.80;;;11.20;86.80;;;;;;5034322;28;20056;-46
2022/06/01 00:42:46;;;;;;;8.98;7.97;;;11.20;87.00;;;;;;5030950;28;20079;-47
2022/06/01 00:45:15;;;;;;;11.95;10.75;;;11.10;87.00;;;;;;5041764;28;20388;-43
2022/06/01 00:47:41;;;;;;;12.27;10.40;;;11.00;87.20;;;;;;5032708;28;20045;-45
2022/06/01 00:50:15;;;;;;;12.02;10.93;;;11.00;87.40;;;;;;5041451;28;20367;-44
2022/06/01 00:52:46;;;;;;;11.82;10.63;;;11.10;87.20;;;;;;5050379;28;20052;-45
2022/06/01 00:55:22;;;;;;;11.27;10.13;;;11.10;87.20;;;;;;5049588;28;20328;-43
2022/06/01 00:57:54;;;;;;;12.70;10.25;;;11.20;87.20;;;;;;5031514;28;20087;-42
2022/06/01 01:00:24;;;;;;;12.60;11.40;;;11.20;87.20;;;;;;5031308;28;20025;-45
2022/06/01 01:02:50;;;;;;;;;;;11.20;87.30;;;;;;5031042;28;20045;-44
2022/06/01 01:05:20;;;;;;;12.63;11.10;;;11.20;87.20;;;;;;5040689;28;19915;-45
2022/06/01 01:07:45;;;;;;;;;;;11.20;87.20;;;;;;5031609;28;20045;-44
2022/06/01 01:10:14;;;;;;;11.45;10.35;;;11.20;87.20;;;;;;5028991;28;19913;-42
2022/06/01 01:12:59;;;;;;;12.32;11.02;;;11.20;87.20;;;;;;5039148;28;20050;-43
2022/06/01 01:15:55;;;;;;;11.02;9.93;;;11.20;87.40;;;;;;5020629;28;20026;-46
2022/06/01 01:18:31;;;;;;;12.00;10.82;;;11.30;87.40;;;;;;5037559;28;20044;-45
2022/06/01 01:21:18;;;;;;;11.32;10.15;;;11.30;87.40;;;;;;5037409;28;20090;-45
2022/06/01 01:24:18;;;;;;;12.55;11.25;;;11.30;87.40;;;;;;5043059;28;20026;-42
2022/06/01 01:26:50;;;;;;;10.75;9.65;;;11.20;87.40;;;;;;5015868;28;20045;-44
2022/06/01 01:29:28;;;;;;;11.13;10.02;;;11.20;87.40;;;;;;5027183;28;20033;-44
2022/06/01 01:31:54;;;;;;;10.43;9.38;;;11.10;87.30;;;;;;5030561;28;20112;-44
2022/06/01 01:34:19;;;;;;;11.93;10.57;;;11.10;87.40;;;;;;5028792;28;20141;-42
2022/06/01 01:36:50;;;;;;;11.50;10.40;;;11.10;87.40;;;;;;5039833;28;20104;-43
2022/06/01 01:39:16;;;;;;;12.43;10.70;;;11.10;87.40;;;;;;5030830;28;20025;-44
2022/06/01 01:41:45;;;;;;;11.55;10.45;;;11.10;87.50;;;;;;5030961;28;20099;-43
2022/06/01 01:44:40;;;;;;;11.43;10.25;;;11.10;87.50;;;;;;5048888;28;20041;-46
2022/06/01 01:47:06;;;;;;;12.88;11.35;;;11.10;87.60;;;;;;5036954;28;20418;-45
2022/06/01 01:49:34;;;;;;;13.30;11.90;;;11.10;87.70;;;;;;5042696;28;20063;-43
2022/06/01 01:52:07;;;;;;;11.73;10.63;;;11.10;87.70;;;;;;5050038;28;20077;-45
2022/06/01 01:54:52;;;;;;;12.07;10.32;;;11.10;87.80;;;;;;5047785;28;20382;-43
2022/06/01 01:57:17;;;;;;;11.82;10.63;;;11.10;88.00;;;;;;5036819;28;20024;-44
2022/06/01 02:00:14;;;;;;;13.43;12.13;;;11.10;88.00;;;;;;5035844;28;20017;-42
2022/06/01 02:02:55;;;;;;;12.27;11.13;;;11.10;88.00;;;;;;5017986;28;20394;-42
2022/06/01 02:08:38;;;;;;;13.98;12.68;;;11.10;88.00;;;;;;5037673;28;20107;-42
2022/06/01 02:14:17;;;;;;;13.10;11.82;;;11.10;88.10;;;;;;5024589;28;20556;-43
2022/06/01 02:16:49;;;;;;;13.43;12.02;;;11.10;88.20;;;;;;5016758;28;20564;-46
2022/06/01 02:19:23;;;;;;;13.38;12.07;;;11.10;88.20;;;;;;5032850;28;20041;-44
2022/06/01 02:21:54;;;;;;;14.48;13.07;;;11.10;88.30;;;;;;5028679;28;20028;-43
2022/06/01 02:24:22;;;;;;;14.18;12.77;;;11.10;88.30;;;;;;5044311;28;20033;-43
2022/06/01 02:26:52;;;;;;;14.93;13.35;;;11.10;88.20;;;;;;5041253;28;20501;-43
2022/06/01 02:29:22;;;;;;;13.52;12.23;;;11.00;88.10;;;;;;5044522;28;20036;-43
2022/06/01 02:31:50;;;;;;;14.85;13.45;;;11.00;88.20;;;;;;5034867;28;20052;-43
2022/06/01 02:34:19;;;;;;;14.63;13.13;;;11.00;88.10;;;;;;5008342;28;20041;-43
2022/06/01 02:36:45;;;;;;;14.73;13.25;;;10.90;88.20;;;;;;5028720;28;20489;-43
2022/06/01 02:39:14;;;;;;;14.57;13.20;;;10.90;88.20;;;;;;5030276;28;20069;-42
2022/06/01 02:44:24;;;;;;;14.00;12.68;;;10.90;88.30;;;;;;5049681;28;20114;-42
2022/06/01 02:46:50;;;;;;;14.50;13.10;;;10.80;88.20;;;;;;5030849;28;20025;-43
2022/06/01 02:49:17;;;;;;;15.35;13.88;;;10.80;88.20;;;;;;5028824;28;20458;-43
2022/06/01 02:51:44;;;;;;;16.63;14.93;;;10.80;88.30;;;;;;5036144;28;20032;-42
2022/06/01 02:54:10;;;;;;;15.93;14.25;;;10.70;88.30;;;;;;5048406;28;20033;-43
2022/06/01 02:56:35;;;;;;;18.23;16.42;;;10.70;88.40;;;;;;5047542;28;20031;-42
2022/06/01 02:59:05;;;;;;;17.48;15.77;;;10.70;88.40;;;;;;5049263;28;20037;-43
2022/06/01 03:01:31;;;;;;;15.48;13.98;;;10.70;88.50;;;;;;5032925;28;20060;-42
2022/06/01 03:03:57;;;;;;;16.42;14.93;;;10.70;88.60;;;;;;5049538;28;20136;-43
2022/06/01 03:06:23;;;;;;;17.65;15.95;;;10.70;88.60;;;;;;5046507;28;20033;-44
2022/06/01 03:08:49;;;;;;;18.98;17.02;;;10.80;88.70;;;;;;5049368;28;20093;-43
2022/06/01 03:11:14;;;;;;;19.88;16.35;;;10.80;88.60;;;;;;5042249;28;20036;-43
2022/06/01 03:13:40;;;;;;;19.80;17.92;;;10.80;88.70;;;;;;5029280;28;20040;-44
2022/06/01 03:16:06;;;;;;;23.73;19.98;;;10.80;88.60;;;;;;5028056;28;20041;-43
2022/06/01 03:18:31;;;;;;;22.92;20.80;;;10.70;88.60;;;;;;5029414;28;20025;-42
2022/06/01 03:21:01;;;;;;;22.20;20.10;;;10.80;88.70;;;;;;5041429;28;20104;-42
2022/06/01 03:23:27;;;;;;;24.05;21.58;;;10.80;88.70;;;;;;5043749;28;20042;-43
2022/06/01 03:25:53;;;;;;;23.52;21.33;;;10.90;88.70;;;;;;5040532;28;20048;-44
2022/06/01 03:28:19;;;;;;;27.52;24.90;;;10.90;88.70;;;;;;5049043;28;20065;-43
2022/06/01 03:30:45;;;;;;;25.83;23.50;;;10.90;88.60;;;;;;5047495;28;20470;-43
2022/06/01 03:33:13;;;;;;;21.95;19.83;;;10.80;88.30;;;;;;5039743;28;20017;-44
2022/06/01 03:35:39;;;;;;;20.08;18.05;;;10.70;88.10;;;;;;5029321;28;20063;-43
2022/06/01 03:38:06;;;;;;;20.83;18.83;;;10.70;88.10;;;;;;5027921;28;20017;-45
2022/06/01 03:40:37;;;;;;;19.92;18.08;;;10.60;88.00;;;;;;5030033;28;20021;-45
2022/06/01 03:43:03;;;;;;;20.95;18.85;;;10.50;87.90;;;;;;5048032;28;20033;-57
2022/06/01 03:48:14;;;;;;;18.92;17.08;;;10.60;88.20;;;;;;5049003;28;20071;-59
2022/06/01 03:50:41;;;;;;;20.65;18.65;;;10.60;88.20;;;;;;5046533;28;20025;-58
2022/06/01 03:53:09;;;;;;;21.60;19.30;;;10.60;88.30;;;;;;5041558;28;20140;-48
2022/06/01 03:55:36;;;;;;;22.30;20.00;;;10.60;88.40;;;;;;5031928;28;20034;-57
2022/06/01 03:58:02;;;;;;;24.17;21.38;;;10.60;88.70;;;;;;5032964;28;20663;-60
2022/06/01 04:00:28;;;;;;;25.13;22.63;;;10.70;88.80;;;;;;5036092;28;20041;-59
2022/06/01 04:02:54;;;;;;;22.25;20.00;;;10.70;89.00;;;;;;5032617;28;20356;-60
2022/06/01 04:05:21;;;;;;;22.83;20.63;;;10.80;89.10;;;;;;5030661;28;20033;-61
2022/06/01 04:07:46;;;;;;;22.70;20.60;;;10.70;89.20;;;;;;5047941;28;20036;-61
2022/06/01 04:10:15;;;;;;;22.88;20.77;;;10.80;89.20;;;;;;5050214;28;20453;-58
2022/06/01 04:12:41;;;;;;;25.13;22.70;;;10.70;89.20;;;;;;5034280;28;20029;-62
2022/06/01 04:15:11;;;;;;;24.40;22.15;;;10.70;89.40;;;;;;5030972;28;20100;-59
2022/06/01 04:17:37;;;;;;;21.92;19.83;;;10.70;89.50;;;;;;5031953;28;20097;-56
2022/06/01 04:20:06;;;;;;;22.58;20.38;;;10.70;89.60;;;;;;5030811;28;20029;-61
2022/06/01 04:22:37;;;;;;;23.10;20.80;;;10.70;89.90;;;;;;5044790;28;20025;-61
2022/06/01 04:25:02;;;;;;;21.65;19.45;;;10.80;89.90;;;;;;5037345;28;20033;-61
2022/06/01 04:27:28;;;;;;;21.30;19.13;;;10.80;90.00;;;;;;5031180;28;20064;-61
2022/06/01 04:29:54;;;;;;;20.15;18.15;;;10.90;89.90;;;;;;5033362;28;20033;-61
2022/06/01 04:32:26;;;;;;;18.85;17.05;;;10.80;89.90;;;;;;5047306;28;20035;-62
2022/06/01 04:34:54;;;;;;;17.85;16.15;;;10.80;90.00;;;;;;5048881;28;20393;-61
2022/06/01 04:37:20;;;;;;;18.08;16.33;;;10.80;90.10;;;;;;5048937;28;20033;-60
2022/06/01 04:39:48;;;;;;;16.40;14.82;;;10.80;90.30;;;;;;5031850;28;20034;-58
2022/06/01 04:42:13;;;;;;;17.17;15.60;;;10.90;90.40;;;;;;5030953;28;20033;-55
2022/06/01 04:44:40;;;;;;;18.08;16.00;;;10.80;90.30;;;;;;5029824;28;20030;-55
2022/06/01 04:47:06;;;;;;;18.35;16.45;;;10.90;90.30;;;;;;5031290;28;20036;-55
2022/06/01 04:49:34;;;;;;;17.77;16.08;;;10.80;90.20;;;;;;5031924;28;20355;-53
2022/06/01 04:52:05;;;;;;;18.40;16.75;;;10.80;90.20;;;;;;5047323;28;21296;-51
2022/06/01 04:54:31;;;;;;;18.80;16.80;;;10.80;90.20;;;;;;5051608;28;20091;-52
2022/06/01 04:56:58;;;;;;;16.02;14.45;;;10.70;90.10;;;;;;5049945;28;20055;-50
2022/06/01 04:59:23;;;;;;;15.95;14.38;;;10.80;90.00;;;;;;5045774;28;20040;-50
2022/06/01 05:01:51;;;;;;;14.85;13.30;;;10.70;90.00;;;;;;5031949;28;20022;-49
2022/06/01 05:04:17;;;;;;;14.75;13.35;;;10.70;90.00;;;;;;5042479;28;20088;-49
2022/06/01 05:06:43;;;;;;;14.02;12.60;;;10.80;90.00;;;;;;5030287;28;20021;-48
2022/06/01 05:09:08;;;;;;;14.00;12.70;;;10.80;90.00;;;;;;5030959;28;20401;-50
2022/06/01 05:11:34;;;;;;;13.70;12.25;;;10.90;90.10;;;;;;5030785;28;20382;-50
2022/06/01 05:14:00;;;;;;;12.27;11.10;;;10.90;90.00;;;;;;5030594;28;20064;-49
2022/06/01 05:16:27;;;;;;;12.27;11.18;;;11.00;90.10;;;;;;5032131;28;20439;-48
2022/06/01 05:18:53;;;;;;;12.63;10.82;;;11.10;90.10;;;;;;5029635;28;20021;-50
2022/06/01 05:21:19;;;;;;;12.25;11.05;;;11.20;90.10;;;;;;5015395;28;20439;-49
2022/06/01 05:23:47;;;;;;;11.07;9.57;;;11.30;90.00;;;;;;5029871;28;20369;-47
2022/06/01 05:26:12;;;;;;;9.25;8.23;;;11.40;90.00;;;;;;5031713;28;20065;-46
2022/06/01 05:28:38;;;;;;;9.07;8.18;;;11.50;90.00;;;;;;5029954;28;20076;-47
2022/06/01 05:31:07;;;;;;;8.05;6.93;;;11.70;89.80;;;;;;5027219;28;20033;-47
2022/06/01 05:33:33;;;;;;;9.20;7.33;;;11.80;89.60;;;;;;5029616;28;20048;-46
2022/06/01 05:35:59;;;;;;;7.10;6.32;;;11.90;89.40;;;;;;5026711;28;20030;-45
2022/06/01 05:38:25;;;;;;;8.23;6.03;;;12.00;89.00;;;;;;5030500;28;20076;-46
2022/06/01 05:40:51;;;;;;;6.68;5.35;;;12.10;88.80;;;;;;5040888;28;20028;-45
2022/06/01 05:43:17;;;;;;;5.75;4.50;;;12.20;88.70;;;;;;5033889;28;20029;-45
2022/06/01 05:45:44;;;;;;;7.45;4.63;;;12.20;88.00;;;;;;5029071;28;20047;-46
2022/06/01 05:48:12;;;;;;;7.68;3.78;;;12.40;88.00;;;;;;5022792;28;20032;-45
2022/06/01 05:50:38;;;;;;;6.35;4.35;;;12.40;87.50;;;;;;5026324;28;20029;-45
2022/06/01 05:53:05;;;;;;;4.82;3.90;;;12.40;87.00;;;;;;5030064;28;20050;-45
2022/06/01 05:55:30;;;;;;;4.95;4.15;;;12.40;86.40;;;;;;5029739;28;20036;-45
2022/06/01 05:57:56;;;;;;;5.18;3.78;;;12.40;86.20;;;;;;5029927;28;20017;-45
2022/06/01 06:00:22;;;;;;;5.68;3.80;;;12.50;85.80;;;;;;5030170;28;20037;-44
2022/06/01 06:02:48;;;;;;;4.43;3.72;;;12.60;85.70;;;;;;5028274;28;20359;-44
2022/06/01 06:07:59;;;;;;;4.22;3.55;;;12.80;85.80;;;;;;5028199;28;20056;-42
2022/06/01 06:10:26;;;;;;;5.93;4.32;;;12.80;85.40;;;;;;5027581;28;20068;-42
2022/06/01 06:12:54;;;;;;;4.72;4.03;;;13.00;85.70;;;;;;5026955;28;20041;-42
2022/06/01 06:15:20;;;;;;;4.70;4.18;;;13.10;85.60;;;;;;5026991;28;20061;-45
2022/06/01 06:17:46;;;;;;;5.45;3.63;;;13.20;85.60;;;;;;5028328;28;20053;-44
2022/06/01 06:20:14;;;;;;;5.38;3.75;;;13.20;84.80;;;;;;5046748;28;20446;-42
2022/06/01 06:22:42;;;;;;;5.68;3.60;;;13.40;84.30;;;;;;5031712;28;20032;-42
2022/06/01 06:25:08;;;;;;;3.95;3.45;;;13.50;84.10;;;;;;5035053;28;20017;-44
2022/06/01 06:27:33;;;;;;;5.93;3.67;;;13.70;84.80;;;;;;5028946;28;20548;-41
2022/06/01 06:29:59;;;;;;;4.57;3.50;;;13.90;84.90;;;;;;5028406;28;20029;-41
2022/06/01 06:32:25;;;;;;;5.22;3.53;;;14.20;84.30;;;;;;5026832;28;20028;-41
2022/06/01 06:34:51;;;;;;;5.53;3.05;;;14.30;83.60;;;;;;5029518;28;20029;-41
2022/06/01 06:37:17;;;;;;;8.00;3.67;;;14.40;83.50;;;;;;5028755;28;20062;-41
2022/06/01 06:39:43;;;;;;;4.68;2.72;;;14.40;83.30;;;;;;5038664;28;20446;-41
2022/06/01 06:42:09;;;;;;;5.65;3.10;;;14.30;81.40;;;;;;5031737;28;20048;-42
2022/06/01 06:44:36;;;;;;;4.60;2.28;;;14.20;81.30;;;;;;5032478;28;20358;-41
2022/06/01 06:47:04;;;;;;;3.53;2.45;;;14.00;80.90;;;;;;5026619;28;20124;-42
2022/06/01 06:49:29;;;;;;;5.45;2.55;;;13.90;81.90;;;;;;5023834;28;20086;-43
2022/06/01 06:51:55;;;;;;;3.17;2.42;;;13.90;81.60;;;;;;5028323;28;20104;-42
2022/06/01 06:54:21;;;;;;;4.00;2.40;;;13.70;82.40;;;;;;5026902;28;20126;-41
2022/06/01 06:56:46;;;;;;;4.45;2.80;;;13.80;83.50;;;;;;5014694;28;20033;-41
2022/06/01 06:59:15;;;;;;;5.30;3.42;;;13.90;83.80;;;;;;5016254;28;20026;-41
2022/06/01 07:01:42;;;;;;;4.40;2.85;;;13.90;83.50;;;;;;5023318;28;20353;-42
2022/06/01 07:04:07;;;;;;;3.58;2.42;;;13.90;82.40;;;;;;5023412;28;20151;-42
2022/06/01 07:06:33;;;;;;;3.30;2.65;;;14.00;83.00;;;;;;5024486;28;20124;-43
2022/06/01 07:09:00;;;;;;;6.57;3.53;;;14.10;83.10;;;;;;5025543;28;20152;-42
2022/06/01 07:11:28;;;;;;;3.85;3.45;;;14.10;81.30;;;;;;5025578;28;20461;-43
2022/06/01 07:13:55;;;;;;;3.60;2.65;;;14.30;81.90;;;;;;5024250;28;20033;-43
2022/06/01 07:16:27;;;;;;;3.55;2.60;;;14.50;81.50;;;;;;5025403;28;20493;-42
2022/06/01 07:18:54;;;;;;;4.40;3.55;;;14.90;81.10;;;;;;5022053;28;20369;-44
2022/06/01 07:21:21;;;;;;;4.00;2.13;;;15.20;79.90;;;;;;5025075;28;20029;-43
2022/06/01 07:23:50;;;;;;;3.78;2.30;;;15.50;78.40;;;;;;5023905;28;20079;-43
2022/06/01 07:26:30;;;;;;;4.40;2.50;;;15.80;78.60;;;;;;5025487;28;20038;-42
2022/06/01 07:28:56;;;;;;;;;;;15.80;76.10;;;;;;5027480;28;20056;-43
2022/06/01 07:31:22;;;;;;;8.10;3.70;;;15.80;76.60;;;;;;5029327;28;19913;-43
2022/06/01 07:33:47;;;;;;;5.03;2.78;;;15.60;76.10;;;;;;5028465;28;20037;-46
2022/06/01 07:36:15;;;;;;;4.93;2.75;;;15.40;76.00;;;;;;5030116;28;20029;-44
2022/06/01 07:44:24;;;;;;;5.80;3.40;;;15.30;75.70;;;;;;5036803;28;20661;-44
2022/06/01 07:46:50;;;;;;;5.35;2.33;;;15.20;77.10;;;;;;5028514;28;20040;-43
2022/06/01 07:49:17;;;;;;;3.17;2.50;;;15.10;78.30;;;;;;5027804;28;20021;-44
2022/06/01 07:51:43;;;;;;;4.35;3.05;;;15.00;78.40;;;;;;5025506;28;20103;-43
2022/06/01 07:54:09;;;;;;;3.85;2.65;;;14.90;78.40;;;;;;5027114;28;20037;-44
2022/06/01 07:56:36;;;;;;;4.15;2.78;;;14.90;79.20;;;;;;5026544;28;20025;-44
2022/06/01 07:59:03;;;;;;;5.25;3.10;;;14.90;78.70;;;;;;5026948;28;20065;-45
2022/06/01 08:01:29;;;;;;;3.63;2.67;;;14.90;79.60;;;;;;5028775;28;20089;-45
2022/06/01 08:03:57;;;;;;;5.18;2.97;;;14.90;79.10;;;;;;5027850;28;20040;-45
2022/06/01 08:06:23;;;;;;;3.80;3.17;;;14.90;78.50;;;;;;5028078;28;20453;-44
2022/06/01 08:08:49;;;;;;;6.10;3.72;;;14.90;78.70;;;;;;5025513;28;20044;-43
2022/06/01 08:11:15;;;;;;;5.80;4.05;;;15.10;77.20;;;;;;5028476;28;20033;-45
2022/06/01 08:13:41;;;;;;;3.45;2.60;;;15.40;76.90;;;;;;5013168;28;20029;-43
2022/06/01 08:16:07;;;;;;;7.00;3.80;;;15.40;75.50;;;;;;5029145;28;20044;-44
2022/06/01 08:18:35;;;;;;;5.10;3.25;;;15.50;75.30;;;;;;5027625;28;20096;-43
2022/06/01 08:21:01;;;;;;;5.38;3.65;;;15.60;75.90;;;;;;5026776;28;20370;-44
2022/06/01 08:23:29;;;;;;;4.80;3.55;;;15.70;76.90;;;;;;5027555;28;20037;-44
2022/06/01 08:25:55;;;;;;;5.82;4.07;;;15.80;76.00;;;;;;5028395;28;20024;-44
2022/06/01 08:28:22;;;;;;;5.60;3.88;;;15.60;76.10;;;;;;5028181;28;20037;-43
2022/06/01 08:30:48;;;;;;;3.95;3.50;;;15.70;76.40;;;;;;5032210;28;20030;-44
2022/06/01 08:33:14;;;;;;;3.97;2.92;;;15.70;74.90;;;;;;5028729;28;20074;-43
2022/06/01 08:35:46;;;;;;;4.57;3.25;;;15.70;77.10;;;;;;5027669;28;20018;-44
2022/06/01 08:38:12;;;;;;;5.00;2.90;;;15.70;77.40;;;;;;5028051;28;20618;-44
2022/06/01 08:40:59;;;;;;;4.75;3.20;;;15.70;76.90;;;;;;5024749;28;20143;-43
2022/06/01 08:43:30;;;;;;;5.93;3.85;;;15.90;76.30;;;;;;5025536;28;20370;-44
2022/06/01 08:46:00;;;;;;;4.53;2.88;;;15.70;73.30;;;;;;5026938;28;20702;-45
2022/06/01 08:48:47;;;;;;;4.00;3.10;;;15.70;74.60;;;;;;5010055;28;20168;-43
2022/06/01 08:51:20;;;;;;;4.60;3.42;;;15.90;76.30;;;;;;5027426;28;20067;-44
2022/06/01 08:53:48;;;;;;;4.68;3.03;;;16.00;76.00;;;;;;5008224;28;20045;-45
2022/06/01 08:56:25;;;;;;;4.30;3.20;;;16.00;73.80;;;;;;5028204;28;20013;-45
2022/06/01 08:59:33;;;;;;;6.53;4.03;;;16.20;74.60;;;;;;5025290;28;20026;-48
2022/06/01 09:02:05;;;;;;;4.38;3.25;;;16.30;74.50;;;;;;5026437;28;20515;-45
2022/06/01 09:05:08;;;;;;;4.43;3.20;;;16.50;74.80;;;;;;5026300;28;20045;-46
2022/06/01 09:07:54;;;;;;;8.75;3.70;;;16.70;73.10;;;;;;5027131;28;20033;-51
2022/06/01 09:10:57;;;;;;;4.95;3.30;;;16.30;74.70;;;;;;5023700;28;20047;-44
2022/06/01 09:13:43;;;;;;;4.28;2.80;;;16.50;74.00;;;;;;5027415;28;20037;-45
2022/06/01 09:16:21;;;;;;;5.50;3.95;;;16.40;72.40;;;;;;5012952;28;20099;-44
2022/06/01 09:19:01;;;;;;;5.55;4.53;;;16.40;71.30;;;;;;4994344;28;20037;-43
2022/06/01 09:24:34;;;;;;;8.70;4.05;;;16.30;70.80;;;;;;5026202;28;20040;-43
2022/06/01 09:27:02;;;;;;;5.57;4.10;;;16.40;69.90;;;;;;5025819;28;20091;-44
2022/06/01 09:29:35;;;;;;;4.65;3.78;;;16.40;71.00;;;;;;5027509;28;20029;-45
2022/06/01 09:32:21;;;;;;;5.53;4.65;;;16.50;70.20;;;;;;5023574;28;20477;-44
2022/06/01 09:34:50;;;;;;;6.40;4.30;;;16.10;69.80;;;;;;5024901;28;20034;-46
2022/06/01 09:37:39;;;;;;;4.53;3.65;;;16.10;68.00;;;;;;5025777;28;20057;-44
2022/06/01 09:40:28;;;;;;;3.17;2.38;;;16.10;70.00;;;;;;5025142;28;20045;-47
2022/06/01 09:43:00;;;;;;;5.65;4.18;;;16.10;71.40;;;;;;5011020;28;20056;-44
2022/06/01 09:45:54;;;;;;;5.38;3.47;;;15.90;70.90;;;;;;5025509;28;20078;-43
2022/06/01 09:48:32;;;;;;;7.85;4.43;;;16.00;71.90;;;;;;5022192;28;20041;-46
2022/06/01 09:51:25;;;;;;;5.40;4.03;;;15.90;71.50;;;;;;5026531;28;20052;-44
2022/06/01 09:54:23;;;;;;;6.47;4.13;;;16.00;72.70;;;;;;5025175;28;20051;-43
2022/06/01 09:56:55;;;;;;;4.05;3.35;;;16.00;74.30;;;;;;5024649;28;20038;-46
2022/06/01 10:07:46;;;;;;;5.40;2.65;;;17.20;68.90;;;;;;5027193;28;20048;-46
2022/06/01 10:10:26;;;;;;;5.28;3.22;;;17.40;68.30;;;;;;5004259;28;20099;-44
2022/06/01 10:12:58;;;;;;;;;;;17.40;67.70;;;;;;5006548;28;20128;-43
2022/06/01 10:15:46;;;;;;;3.88;2.90;;;17.30;65.30;;;;;;5025625;28;19916;-44
2022/06/01 10:18:29;;;;;;;4.90;3.67;;;17.50;64.50;;;;;;5028920;28;20034;-44
2022/06/01 10:21:07;;;;;;;4.70;3.45;;;17.40;65.20;;;;;;4990307;28;20073;-44
2022/06/01 10:24:07;;;;;;;6.25;4.03;;;17.40;66.40;;;;;;5024635;28;20049;-49
2022/06/01 10:26:49;;;;;;;6.75;3.95;;;17.10;67.50;;;;;;5028413;28;20037;-43
2022/06/01 10:29:21;;;;;;;5.80;4.57;;;17.00;68.00;;;;;;5008906;28;20025;-44
2022/06/01 10:32:19;;;;;;;6.72;4.40;;;16.60;65.90;;;;;;5025508;28;20100;-45
2022/06/01 10:34:54;;;;;;;4.47;3.78;;;16.40;66.70;;;;;;5025279;28;20025;-44
2022/06/01 10:38:00;;;;;;;4.32;3.17;;;16.20;67.00;;;;;;5024984;28;20068;-46
2022/06/01 10:40:58;;;;;;;5.30;4.80;;;16.10;69.00;;;;;;5020928;28;20410;-45
2022/06/01 10:43:44;;;;;;;9.77;6.80;;;15.70;70.10;;;;;;4984053;28;20133;-43
2022/06/01 10:46:49;;;;;;;6.45;5.82;;;15.40;70.50;;;;;;4984947;28;20030;-43
2022/06/01 10:49:26;;;;;;;9.25;6.32;;;15.00;71.80;;;;;;4970525;28;20034;-57
2022/06/01 10:52:03;;;;;;;9.35;7.43;;;14.80;73.70;;;;;;5000580;28;20033;-55
2022/06/01 10:55:04;;;;;;;7.88;7.07;;;14.50;75.60;;;;;;4970730;28;20062;-57
2022/06/01 10:57:31;;;;;;;9.63;7.68;;;14.30;79.30;;;;;;5003472;28;20068;-45
2022/06/01 10:59:59;;;;;;;16.48;11.23;;;14.10;81.20;;;;;;5002202;28;20029;-50
2022/06/01 11:02:56;;;;;;;10.90;9.40;;;13.90;81.90;;;;;;4986789;28;20030;-50
2022/06/01 11:05:59;;;;;;;10.48;9.30;;;13.80;82.40;;;;;;4987198;28;20415;-52
2022/06/01 11:09:02;;;;;;;12.75;10.20;;;13.60;83.00;;;;;;5000232;28;20050;-55
2022/06/01 11:11:53;;;;;;;15.55;11.85;;;13.40;83.70;;;;;;5002890;28;20431;-54
2022/06/01 11:14:39;;;;;;;11.63;9.63;;;13.00;84.60;;;;;;4984372;28;20142;-52
2022/06/01 11:17:24;;;;;;;11.00;9.70;;;12.70;84.50;;;;;;5000936;28;20028;-58
2022/06/01 11:20:35;;;;;;;12.23;9.05;;;12.60;85.60;;;;;;4994647;28;20366;-62
2022/06/01 11:23:15;;;;;;;11.82;8.80;;;12.50;85.80;;;;;;4987139;28;20064;-59
2022/06/01 11:26:23;;;;;;;14.77;11.52;;;12.40;85.50;;;;;;5024303;28;20042;-59
2022/06/01 11:29:33;;;;;;;13.50;10.63;;;12.20;86.70;;;;;;5022304;28;20033;-57
2022/06/01 11:32:05;;;;;;;11.15;10.02;;;12.10;86.90;;;;;;5024586;28;20481;-60
2022/06/01 11:34:58;;;;;;;12.25;9.95;;;12.00;86.80;;;;;;5007791;28;20049;-61
2022/06/01 11:38:03;;;;;;;12.27;11.00;;;11.90;87.20;;;;;;5020852;28;20189;-62
2022/06/01 11:40:50;;;;;;;14.25;11.48;;;11.60;87.30;;;;;;5024871;28;20038;-57
2022/06/01 11:43:28;;;;;;;13.48;10.35;;;11.30;87.90;;;;;;5023454;28;20027;-59
2022/06/01 11:46:15;;;;;;;12.88;11.57;;;10.90;87.90;;;;;;5023991;28;20095;-59
2022/06/01 11:48:53;;;;;;;12.30;10.90;;;10.70;88.00;;;;;;5005981;28;20037;-52
2022/06/01 11:51:42;;;;;;;15.10;10.70;;;10.50;88.10;;;;;;5019658;28;20126;-58
2022/06/01 11:54:14;;;;;;;17.27;10.77;;;10.30;88.00;;;;;;5024300;28;20053;-61
2022/06/01 11:57:04;;;;;;;12.98;10.27;;;10.40;88.60;;;;;;5025678;28;20053;-60
2022/06/01 12:00:05;;;;;;;11.25;9.55;;;10.20;88.60;;;;;;5023868;28;20026;-59
2022/06/01 12:02:53;;;;;;;13.13;10.20;;;10.20;88.60;;;;;;5023919;28;20095;-61
2022/06/01 12:05:42;;;;;;;12.05;10.57;;;10.10;88.60;;;;;;5023972;28;20029;-60
2022/06/01 12:08:37;;;;;;;11.37;10.10;;;9.90;88.70;;;;;;5025645;28;20049;-59
2022/06/01 12:11:06;;;;;;;10.30;9.23;;;9.90;88.50;;;;;;5022987;28;20042;-57
2022/06/01 12:13:35;;;;;;;9.27;8.32;;;9.70;88.40;;;;;;5024223;28;20091;-57
2022/06/01 12:16:22;;;;;;;9.50;8.55;;;9.70;88.20;;;;;;5027176;28;20044;-55
2022/06/01 12:19:12;;;;;;;15.13;9.90;;;9.70;88.50;;;;;;5027861;28;20033;-61
2022/06/01 12:21:54;;;;;;;11.27;9.43;;;9.70;88.50;;;;;;5028258;28;20041;-61
2022/06/01 12:30:22;;;;;;;12.27;9.32;;;9.90;89.10;;;;;;5006279;28;20127;-60
2022/06/01 12:33:00;;;;;;;10.27;8.77;;;9.90;89.30;;;;;;5021146;28;20055;-61
2022/06/01 12:35:47;;;;;;;10.55;9.55;;;9.90;89.30;;;;;;5024357;28;20036;-54
2022/06/01 12:38:43;;;;;;;10.68;8.48;;;10.00;89.30;;;;;;5042872;28;20025;-59
2022/06/01 12:41:20;;;;;;;10.90;8.45;;;10.10;89.50;;;;;;5027629;28;20148;-60
2022/06/01 12:43:54;;;;;;;11.05;8.73;;;10.20;89.30;;;;;;5028289;28;20112;-59
2022/06/01 12:46:30;;;;;;;8.85;7.68;;;10.30;89.30;;;;;;5011384;28;20041;-54
2022/06/01 12:49:36;;;;;;;9.15;8.10;;;10.40;89.40;;;;;;5029226;28;20106;-57
2022/06/01 12:52:26;;;;;;;8.57;7.68;;;10.40;89.40;;;;;;5027505;28;20033;-51
2022/06/01 12:54:58;;;;;;;8.02;7.22;;;10.40;89.20;;;;;;5027670;28;20848;-53
2022/06/01 12:57:55;;;;;;;9.07;8.00;;;10.60;89.40;;;;;;5026400;28;20045;-51
2022/06/01 13:00:33;;;;;;;12.60;7.35;;;10.80;89.30;;;;;;5027658;28;20025;-60
2022/06/01 13:03:09;;;;;;;8.85;7.95;;;10.90;89.00;;;;;;5028247;28;20057;-60
2022/06/01 13:05:53;;;;;;;7.03;6.32;;;10.90;89.10;;;;;;5026595;28;20037;-61
2022/06/01 13:08:25;;;;;;;6.78;5.32;;;11.00;88.80;;;;;;5025307;28;20108;-60
2022/06/01 13:10:52;;;;;;;5.88;4.32;;;11.10;88.70;;;;;;5025336;28;20034;-60
2022/06/01 13:13:28;;;;;;;4.00;3.60;;;11.10;88.20;;;;;;5020611;28;20176;-60
2022/06/01 13:16:21;;;;;;;5.10;3.88;;;11.10;88.10;;;;;;5024848;28;20045;-58
2022/06/01 13:18:50;;;;;;;3.92;3.22;;;11.30;88.20;;;;;;5027249;28;20033;-61
2022/06/01 13:21:37;;;;;;;3.85;3.05;;;11.40;88.10;;;;;;5008665;28;20034;-60
2022/06/01 13:24:18;;;;;;;4.45;2.78;;;11.50;87.90;;;;;;5026973;28;20041;-61
2022/06/01 13:26:51;;;;;;;3.42;2.38;;;11.50;87.90;;;;;;5006628;28;20038;-62
2022/06/01 13:29:38;;;;;;;2.80;2.30;;;11.80;88.10;;;;;;5028176;28;20034;-61
2022/06/01 13:32:08;;;;;;;3.67;2.45;;;11.90;87.70;;;;;;5025941;28;20025;-61
2022/06/01 13:35:04;;;;;;;5.25;2.38;;;12.10;87.90;;;;;;5026448;28;20049;-60
2022/06/01 13:37:41;;;;;;;4.45;3.70;;;12.50;88.00;;;;;;5029359;28;20108;-59
2022/06/01 13:40:53;;;;;;;4.85;4.32;;;13.00;88.20;;;;;;4993422;28;20030;-57
2022/06/01 13:43:20;;;;;;;4.35;3.85;;;13.60;87.60;;;;;;5027786;28;20083;-52
2022/06/01 13:45:56;;;;;;;5.68;3.92;;;13.90;86.10;;;;;;5027721;28;20606;-53
2022/06/01 13:48:36;;;;;;;4.72;3.88;;;14.20;86.50;;;;;;5024777;28;20124;-49
2022/06/01 13:51:09;;;;;;;4.57;3.65;;;14.60;86.70;;;;;;5027156;28;20128;-49